createdAt,value
2022-12-15T00:02:17.081Z,-3.77
2022-12-15T00:05:02.315Z,-3.79
2022-12-15T00:07:47.726Z,-3.67
2022-12-15T00:10:33.052Z,-3.68
2022-12-15T00:13:18.495Z,-3.59
2022-12-15T00:16:07.527Z,-3.70
2022-12-15T00:18:53.371Z,-3.53
2022-12-15T00:21:39.114Z,-3.54
2022-12-15T00:24:24.991Z,-3.58
2022-12-15T00:27:10.169Z,-3.58
2022-12-15T00:29:55.864Z,-3.62
2022-12-15T00:32:41.710Z,-3.58
2022-12-15T00:35:28.042Z,-3.49
2022-12-15T00:38:13.572Z,-3.53
2022-12-15T00:40:40.333Z,-3.45
2022-12-15T00:43:12.319Z,-3.48
2022-12-15T00:45:57.720Z,-3.52
2022-12-15T00:48:24.456Z,-3.27
2022-12-15T00:50:54.016Z,-3.38
2022-12-15T00:53:40.858Z,-3.37
2022-12-15T00:56:27.421Z,-3.33
2022-12-15T00:59:13.023Z,-3.31
2022-12-15T01:01:58.474Z,-3.48
2022-12-15T01:04:44.080Z,-3.41
2022-12-15T01:07:29.273Z,-3.47
2022-12-15T01:10:14.545Z,-3.42
2022-12-15T01:13:00.465Z,-3.49
2022-12-15T01:15:45.870Z,-3.46
2022-12-15T01:18:31.679Z,-3.33
2022-12-15T01:21:00.368Z,-3.33
2022-12-15T01:23:27.946Z,-3.33
2022-12-15T01:25:55.454Z,-3.51
2022-12-15T01:28:22.710Z,-3.39
2022-12-15T01:30:49.881Z,-3.61
2022-12-15T01:33:17.506Z,-3.55
2022-12-15T01:35:44.342Z,-3.73
2022-12-15T01:38:11.596Z,-3.66
2022-12-15T01:40:47.396Z,-3.52
2022-12-15T01:43:20.250Z,-3.57
2022-12-15T01:45:51.188Z,-3.45
2022-12-15T01:48:27.776Z,-3.50
2022-12-15T01:51:34.376Z,-3.43
2022-12-15T01:54:07.596Z,-3.34
2022-12-15T01:56:40.324Z,-3.32
2022-12-15T01:59:09.826Z,-3.23
2022-12-15T02:01:36.941Z,-3.28
2022-12-15T02:04:03.840Z,-3.33
2022-12-15T02:06:30.795Z,-3.39
2022-12-15T02:08:58.906Z,-3.35
2022-12-15T02:11:44.701Z,-3.46
2022-12-15T02:14:12.828Z,-3.59
2022-12-15T02:16:39.641Z,-3.74
2022-12-15T02:19:09.062Z,-3.69
2022-12-15T02:22:01.897Z,-3.67
2022-12-15T02:24:40.745Z,-3.68
2022-12-15T02:27:20.587Z,-3.70
2022-12-15T02:30:05.125Z,-3.67
2022-12-15T02:32:37.870Z,-3.59
2022-12-15T02:35:09.827Z,-3.58
2022-12-15T02:37:38.315Z,-3.50
2022-12-15T02:40:07.789Z,-3.51
2022-12-15T02:42:37.244Z,-3.50
2022-12-15T02:45:09.770Z,-3.50
2022-12-15T02:47:46.376Z,-3.48
2022-12-15T02:50:28.978Z,-3.51
2022-12-15T02:53:27.795Z,-3.64
2022-12-15T02:55:57.651Z,-3.54
2022-12-15T02:58:30.001Z,-3.63
2022-12-15T03:01:03.922Z,-3.66
2022-12-15T03:03:33.450Z,-3.63
2022-12-15T03:06:02.390Z,-3.67
2022-12-15T03:08:29.918Z,-3.60
2022-12-15T03:10:57.430Z,-3.62
2022-12-15T03:13:24.960Z,-3.60
2022-12-15T03:15:52.734Z,-3.55
2022-12-15T03:18:19.349Z,-3.55
2022-12-15T03:20:46.101Z,-3.57
2022-12-15T03:23:12.860Z,-3.57
2022-12-15T03:25:39.658Z,-3.64
2022-12-15T03:28:06.401Z,-3.59
2022-12-15T03:30:33.178Z,-3.57
2022-12-15T03:33:00.054Z,-3.55
2022-12-15T03:35:26.764Z,-3.62
2022-12-15T03:37:53.459Z,-3.67
2022-12-15T03:40:20.139Z,-3.66
2022-12-15T03:42:49.429Z,-3.88
2022-12-15T03:45:21.811Z,-3.86
2022-12-15T03:47:49.841Z,-3.75
2022-12-15T03:50:19.517Z,-3.91
2022-12-15T03:52:50.616Z,-3.96
2022-12-15T03:55:17.355Z,-4.06
2022-12-15T03:57:44.026Z,-4.01
2022-12-15T04:00:12.130Z,-3.93
2022-12-15T04:02:38.958Z,-3.92
2022-12-15T04:05:06.085Z,-3.91
2022-12-15T04:07:32.821Z,-3.93
2022-12-15T04:09:59.463Z,-3.93
2022-12-15T04:12:26.315Z,-3.90
2022-12-15T04:14:54.130Z,-3.84
2022-12-15T04:17:20.831Z,-3.98
2022-12-15T04:20:06.404Z,-4.00
2022-12-15T04:22:33.098Z,-3.98
2022-12-15T04:25:19.663Z,-3.81
2022-12-15T04:28:04.795Z,-3.89
2022-12-15T04:30:50.620Z,-3.85
2022-12-15T04:33:36.341Z,-3.87
2022-12-15T04:36:21.711Z,-3.83
2022-12-15T04:39:07.010Z,-3.84
2022-12-15T04:41:52.206Z,-3.77
2022-12-15T04:44:37.650Z,-3.76
2022-12-15T04:47:23.215Z,-3.73
2022-12-15T04:50:08.310Z,-3.73
2022-12-15T04:52:53.549Z,-3.67
2022-12-15T04:55:38.730Z,-3.71
2022-12-15T04:58:28.068Z,-3.69
2022-12-15T05:01:16.378Z,-3.70
2022-12-15T05:04:02.191Z,-3.58
2022-12-15T05:06:47.404Z,-3.76
2022-12-15T05:09:32.774Z,-3.62
2022-12-15T05:12:18.121Z,-3.57
2022-12-15T05:15:03.452Z,-3.67
2022-12-15T05:17:49.310Z,-3.70
2022-12-15T05:20:34.717Z,-3.70
2022-12-15T05:23:19.979Z,-3.70
2022-12-15T05:26:05.269Z,-3.61
2022-12-15T05:28:50.493Z,-3.60
2022-12-15T05:31:35.899Z,-3.61
2022-12-15T05:34:05.559Z,-3.64
2022-12-15T05:36:33.476Z,-3.52
2022-12-15T05:39:00.141Z,-3.69
2022-12-15T05:41:27.092Z,-3.55
2022-12-15T05:43:53.728Z,-3.57
2022-12-15T05:46:20.483Z,-3.53
2022-12-15T05:48:47.401Z,-3.53
2022-12-15T05:51:14.601Z,-3.48
2022-12-15T05:53:41.806Z,-3.56
2022-12-15T05:56:14.058Z,-3.43
2022-12-15T05:58:45.389Z,-3.39
2022-12-15T06:01:17.286Z,-3.34
2022-12-15T06:03:44.656Z,-3.34
2022-12-15T06:06:13.215Z,-3.26
2022-12-15T06:08:41.236Z,-3.26
2022-12-15T06:11:08.323Z,-3.25
2022-12-15T06:13:35.467Z,-3.24
2022-12-15T06:16:13.970Z,-3.15
2022-12-15T06:18:44.513Z,-3.25
2022-12-15T06:21:19.250Z,-3.21
2022-12-15T06:23:46.441Z,-3.23
2022-12-15T06:26:18.981Z,-3.16
2022-12-15T06:28:46.656Z,-3.05
2022-12-15T06:31:14.672Z,-3.08
2022-12-15T06:33:41.480Z,-3.13
2022-12-15T06:36:12.892Z,-3.18
2022-12-15T06:38:40.307Z,-3.05
2022-12-15T06:41:07.659Z,-2.91
2022-12-15T06:43:34.683Z,-2.94
2022-12-15T06:46:02.921Z,-3.05
2022-12-15T06:48:30.371Z,-2.98
2022-12-15T06:50:57.383Z,-2.99
2022-12-15T06:53:24.679Z,-2.86
2022-12-15T06:55:51.745Z,-2.82
2022-12-15T06:58:18.465Z,-2.78
2022-12-15T07:00:46.691Z,-2.77
2022-12-15T07:03:17.100Z,-2.87
2022-12-15T07:05:44.744Z,-2.78
2022-12-15T07:08:15.719Z,-2.78
2022-12-15T07:10:44.302Z,-2.79
2022-12-15T07:13:14.269Z,-2.77
2022-12-15T07:15:44.678Z,-2.86
2022-12-15T07:18:11.394Z,-2.83
2022-12-15T07:20:38.346Z,-2.69
2022-12-15T07:23:08.177Z,-2.56
2022-12-15T07:25:36.314Z,-2.55
2022-12-15T07:28:03.688Z,-2.66
2022-12-15T07:30:35.104Z,-2.57
2022-12-15T07:33:05.788Z,-2.53
2022-12-15T07:35:32.900Z,-2.43
2022-12-15T07:38:00.455Z,-2.36
2022-12-15T07:40:27.214Z,-2.34
2022-12-15T07:42:54.019Z,-2.28
2022-12-15T07:45:21.969Z,-2.34
2022-12-15T07:47:50.546Z,-2.27
2022-12-15T07:50:18.873Z,-2.30
2022-12-15T07:52:46.374Z,-2.36
2022-12-15T07:55:13.259Z,-2.22
2022-12-15T07:57:39.900Z,-2.10
2022-12-15T08:00:09.297Z,-2.04
2022-12-15T08:02:36.139Z,-1.89
2022-12-15T08:05:02.875Z,-2.01
2022-12-15T08:07:29.535Z,-1.91
2022-12-15T08:09:56.240Z,-1.87
2022-12-15T08:12:22.907Z,-1.76
2022-12-15T08:14:50.765Z,-1.81
2022-12-15T08:17:17.605Z,-1.79
2022-12-15T08:19:44.313Z,-1.79
2022-12-15T08:22:12.316Z,-1.84
2022-12-15T08:24:40.706Z,-1.71
2022-12-15T08:27:08.364Z,-1.76
2022-12-15T08:29:51.935Z,-1.72
2022-12-15T08:32:19.383Z,-1.69
2022-12-15T08:34:51.498Z,-1.68
2022-12-15T08:37:18.394Z,-1.72
2022-12-15T08:39:45.139Z,-1.70
2022-12-15T08:42:12.070Z,-1.73
2022-12-15T08:44:38.797Z,-1.63
2022-12-15T08:47:05.681Z,-1.63
2022-12-15T08:49:32.326Z,-1.65
2022-12-15T08:51:59.028Z,-1.55
2022-12-15T08:54:25.706Z,-1.66
2022-12-15T08:56:52.469Z,-1.50
2022-12-15T08:59:19.508Z,-1.50
2022-12-15T09:01:46.428Z,-1.60
2022-12-15T09:04:13.429Z,-1.55
2022-12-15T09:06:40.222Z,-1.62
2022-12-15T09:09:08.984Z,-1.51
2022-12-15T09:11:35.768Z,-1.46
2022-12-15T09:14:03.518Z,-1.60
2022-12-15T09:16:30.467Z,-1.58
2022-12-15T09:18:58.949Z,-1.36
2022-12-15T09:21:27.880Z,-1.34
2022-12-15T09:24:00.522Z,-1.33
2022-12-15T09:26:30.234Z,-1.31
2022-12-15T09:28:57.648Z,-1.21
2022-12-15T09:31:28.599Z,-1.24
2022-12-15T09:33:56.988Z,-1.19
2022-12-15T09:36:24.411Z,-1.19
2022-12-15T09:38:51.296Z,-1.15
2022-12-15T09:41:27.540Z,-1.09
2022-12-15T09:44:10.893Z,-1.12
2022-12-15T09:47:00.028Z,-1.06
2022-12-15T09:49:54.315Z,-1.05
2022-12-15T09:52:46.544Z,-0.99
2022-12-15T09:55:18.959Z,-0.89
2022-12-15T09:58:09.141Z,-0.82
2022-12-15T10:00:43.577Z,-0.91
2022-12-15T10:03:22.046Z,-0.79
2022-12-15T10:06:18.312Z,-0.81
2022-12-15T10:08:55.257Z,-0.76
2022-12-15T10:11:30.788Z,-0.77
2022-12-15T10:14:11.507Z,-0.69
2022-12-15T10:17:07.546Z,-0.67
2022-12-15T10:19:37.548Z,-0.59
2022-12-15T10:22:04.332Z,-0.66
2022-12-15T10:25:08.003Z,-0.76
2022-12-15T10:27:44.399Z,-0.68
2022-12-15T10:30:12.963Z,-0.85
2022-12-15T10:32:51.681Z,-0.69
2022-12-15T10:35:23.122Z,-0.74
2022-12-15T10:37:50.243Z,-0.67
2022-12-15T10:40:52.273Z,-0.65
2022-12-15T10:43:28.050Z,-0.62
2022-12-15T10:46:22.093Z,-0.66
2022-12-15T10:48:54.604Z,-0.49
2022-12-15T10:51:37.226Z,-0.55
2022-12-15T10:54:10.061Z,-0.47
2022-12-15T10:56:59.450Z,-0.44
2022-12-15T10:59:31.973Z,-0.46
2022-12-15T11:05:15.997Z,-0.49
2022-12-15T11:07:42.596Z,-0.49
2022-12-15T11:10:18.665Z,-0.41
2022-12-15T11:12:58.713Z,-0.34
2022-12-15T11:15:31.510Z,-0.42
2022-12-15T11:18:11.406Z,-0.38
2022-12-15T11:20:44.920Z,-0.39
2022-12-15T11:23:51.703Z,-0.46
2022-12-15T11:26:31.079Z,-0.53
2022-12-15T11:29:07.008Z,-0.39
2022-12-15T11:31:40.864Z,-0.28
2022-12-15T11:34:15.534Z,-0.31
2022-12-15T11:37:07.009Z,-0.21
2022-12-15T11:40:11.413Z,-0.37
2022-12-15T11:42:41.080Z,-0.26
2022-12-15T11:45:24.751Z,-0.31
2022-12-15T11:48:14.006Z,-0.25
2022-12-15T11:51:18.644Z,-0.28
2022-12-15T11:53:51.327Z,-0.16
2022-12-15T11:56:27.040Z,-0.37
2022-12-15T11:58:56.822Z,-0.25
2022-12-15T12:01:52.584Z,-0.28
2022-12-15T12:04:26.063Z,-0.38
2022-12-15T12:07:02.048Z,-0.20
2022-12-15T12:09:59.187Z,-0.29
2022-12-15T12:12:45.123Z,-0.37
2022-12-15T12:15:57.079Z,-0.31
2022-12-15T12:18:28.351Z,-0.25
2022-12-15T12:21:04.369Z,-0.32
2022-12-15T12:23:58.644Z,-0.40
2022-12-15T12:26:44.012Z,-0.24
2022-12-15T12:29:28.350Z,-0.30
2022-12-15T12:32:04.039Z,-0.28
2022-12-15T12:35:31.523Z,-0.44
2022-12-15T12:37:45.625Z,-0.26
2022-12-15T12:40:41.720Z,-0.38
2022-12-15T12:43:13.498Z,-0.27
2022-12-15T12:45:56.338Z,-0.31
2022-12-15T12:48:25.932Z,-0.33
2022-12-15T12:51:07.574Z,-0.38
2022-12-15T12:53:34.974Z,-0.42
2022-12-15T12:56:01.940Z,-0.50
2022-12-15T12:58:38.903Z,-0.48
2022-12-15T13:01:13.118Z,-0.47
2022-12-15T13:03:40.675Z,-0.45
2022-12-15T15:03:10.417Z,-0.49
2022-12-15T16:43:24.262Z,-0.55
2022-12-15T16:45:53.452Z,-0.50
2022-12-15T16:48:21.145Z,-0.49
2022-12-15T16:50:53.136Z,-0.54
2022-12-15T16:53:32.471Z,-0.57
2022-12-15T16:56:01.792Z,-0.51
2022-12-15T16:58:29.370Z,-0.55
2022-12-15T17:00:56.302Z,-0.52
2022-12-15T17:03:26.035Z,-0.47
2022-12-15T17:05:58.338Z,-0.64
2022-12-15T17:08:27.428Z,-0.50
2022-12-15T17:10:54.330Z,-0.44
2022-12-15T17:13:41.912Z,-0.51
2022-12-15T17:16:14.364Z,-0.52
2022-12-15T17:18:42.784Z,-0.48
2022-12-15T17:21:15.560Z,-0.45
2022-12-15T17:23:44.611Z,-0.47
2022-12-15T17:26:29.196Z,-0.49
2022-12-15T17:28:59.588Z,-0.48
2022-12-15T17:31:35.326Z,-0.46
2022-12-15T17:34:34.831Z,-0.43
2022-12-15T17:37:03.431Z,-0.48
2022-12-15T17:39:30.796Z,-0.49
2022-12-15T17:42:01.055Z,-0.44
2022-12-15T17:44:36.706Z,-0.36
2022-12-15T17:47:06.423Z,-0.39
2022-12-15T17:49:36.597Z,-0.36
2022-12-15T17:52:15.690Z,-0.36
2022-12-15T17:54:42.433Z,-0.34
2022-12-15T17:57:11.597Z,-0.36
2022-12-15T17:59:38.227Z,-0.34
2022-12-15T18:02:05.076Z,-0.29
2022-12-15T18:04:31.971Z,-0.31
2022-12-15T18:07:02.081Z,-0.31
2022-12-15T18:09:29.822Z,-0.32
2022-12-15T18:11:56.661Z,-0.44
2022-12-15T18:14:23.612Z,-0.36
2022-12-15T18:16:50.793Z,-0.39
2022-12-15T18:19:17.392Z,-0.23
2022-12-15T18:21:49.660Z,-0.34
2022-12-15T18:24:17.507Z,-0.48
2022-12-15T18:26:44.443Z,-0.37
2022-12-15T18:29:17.990Z,-0.44
2022-12-15T18:31:46.637Z,-0.44
2022-12-15T18:34:15.062Z,-0.33
2022-12-15T18:36:43.104Z,-0.32
2022-12-15T18:39:21.216Z,-0.42
2022-12-15T18:41:48.610Z,-0.45
2022-12-15T18:44:33.432Z,-0.37
2022-12-15T18:47:00.242Z,-0.40
2022-12-15T18:49:26.903Z,-0.46
2022-12-15T18:51:53.520Z,-0.33
2022-12-15T18:54:22.508Z,-0.31
2022-12-15T18:56:50.024Z,-0.33
2022-12-15T18:59:17.813Z,-0.34
2022-12-15T19:01:45.980Z,-0.33
2022-12-15T19:04:12.859Z,-0.33
2022-12-15T19:06:40.540Z,-0.32
2022-12-15T19:09:20.365Z,-0.36
2022-12-15T19:12:07.275Z,-0.22
2022-12-15T19:14:43.438Z,-0.28
2022-12-15T19:17:29.628Z,-0.33
2022-12-15T19:20:15.259Z,-0.32
2022-12-15T19:22:42.490Z,-0.27
2022-12-15T19:25:24.791Z,-0.32
2022-12-15T19:27:53.146Z,-0.53
2022-12-15T19:30:20.314Z,-0.33
2022-12-15T19:32:47.090Z,-0.23
2022-12-15T19:35:13.964Z,-0.40
2022-12-15T19:37:42.415Z,-0.32
2022-12-15T19:40:18.084Z,-0.37
2022-12-15T19:42:44.747Z,-0.27
2022-12-15T19:45:22.751Z,-0.33
2022-12-15T19:47:50.017Z,-0.34
2022-12-15T19:50:19.074Z,-0.28
2022-12-15T19:52:48.406Z,-0.26
2022-12-15T19:55:23.918Z,-0.22
2022-12-15T19:57:50.669Z,-0.20
2022-12-15T20:00:21.980Z,-0.26
2022-12-15T20:02:55.112Z,-0.20
2022-12-15T20:05:23.502Z,-0.19
2022-12-15T20:07:54.911Z,-0.22
2022-12-15T20:10:31.892Z,-0.23
2022-12-15T20:13:00.743Z,-0.12
2022-12-15T20:15:27.881Z,-0.15
2022-12-15T20:17:57.912Z,-0.10
2022-12-15T20:20:26.897Z,-0.11
2022-12-15T20:22:55.837Z,-0.05
2022-12-15T20:25:41.508Z,-0.09
2022-12-15T20:28:16.078Z,0.06
2022-12-15T20:30:43.620Z,-0.01
2022-12-15T20:33:11.880Z,0.01
2022-12-15T20:35:38.892Z,-0.17
2022-12-15T20:38:28.429Z,-0.12
2022-12-15T20:40:55.690Z,-0.07
2022-12-15T20:43:23.021Z,-0.01
2022-12-15T20:45:58.116Z,-0.08
2022-12-15T20:48:25.175Z,0.01
2022-12-15T20:50:52.960Z,-0.06
2022-12-15T20:53:22.509Z,-0.09
2022-12-15T20:55:50.224Z,-0.03
2022-12-15T20:58:18.419Z,-0.03
2022-12-15T21:00:46.113Z,-0.05
2022-12-15T21:03:34.111Z,-0.04
2022-12-15T21:06:01.032Z,0.05
2022-12-15T21:08:30.385Z,-0.07
2022-12-15T21:11:01.792Z,-0.05
2022-12-15T21:13:31.444Z,-0.02
2022-12-15T21:15:58.419Z,0.05
2022-12-15T21:21:20.983Z,-0.06
2022-12-15T21:23:47.910Z,-0.02
2022-12-15T21:26:19.148Z,-0.05
2022-12-15T21:28:47.532Z,-0.05
2022-12-15T21:31:15.512Z,0.01
2022-12-15T21:33:42.534Z,0.03
2022-12-15T21:36:18.508Z,-0.01
2022-12-15T21:38:50.902Z,-0.06
2022-12-15T21:41:21.007Z,-0.06
2022-12-15T21:43:48.250Z,-0.19
2022-12-15T21:46:17.385Z,-0.03
2022-12-15T21:49:03.139Z,-0.09
2022-12-15T21:51:30.590Z,-0.04
2022-12-15T21:53:57.467Z,-0.12
2022-12-15T21:56:24.158Z,-0.16
2022-12-15T21:58:52.755Z,-0.11
2022-12-15T22:01:24.480Z,-0.12
2022-12-15T22:03:56.317Z,-0.05
2022-12-15T22:06:28.958Z,-0.06
2022-12-15T22:08:58.722Z,-0.11
2022-12-15T22:11:26.749Z,-0.20
2022-12-15T22:13:55.149Z,-0.23
2022-12-15T22:16:22.661Z,-0.22
2022-12-15T22:18:52.081Z,-0.15
2022-12-15T22:21:19.050Z,-0.16
2022-12-15T22:23:47.979Z,-0.21
2022-12-15T22:26:21.465Z,-0.25
2022-12-15T22:28:48.778Z,-0.17
2022-12-15T22:31:15.874Z,-0.15
2022-12-15T22:33:43.094Z,-0.21
2022-12-15T22:36:09.767Z,-0.28
2022-12-15T22:38:36.663Z,-0.22
2022-12-15T22:41:04.521Z,-0.16
2022-12-15T22:43:34.144Z,-0.13
2022-12-15T22:46:00.947Z,-0.11
2022-12-15T22:48:34.443Z,-0.13
2022-12-15T22:51:01.755Z,-0.19
2022-12-15T22:53:31.833Z,-0.18
2022-12-15T22:55:58.940Z,-0.13
2022-12-15T22:58:30.501Z,-0.16
2022-12-15T23:00:59.172Z,-0.11
2022-12-15T23:03:29.414Z,-0.14
2022-12-15T23:05:56.946Z,-0.17
2022-12-15T23:08:23.550Z,-0.12
2022-12-15T23:11:08.452Z,-0.21
2022-12-15T23:13:35.489Z,-0.21
2022-12-15T23:16:21.800Z,-0.25
2022-12-15T23:19:02.518Z,-0.23
2022-12-15T23:21:29.412Z,-0.24
2022-12-15T23:23:57.619Z,-0.26
2022-12-15T23:26:25.966Z,-0.37
2022-12-15T23:28:53.711Z,-0.42
2022-12-15T23:31:22.170Z,-0.39
2022-12-15T23:33:49.949Z,-0.46
2022-12-15T23:36:19.211Z,-0.38
2022-12-15T23:38:46.605Z,-0.39
2022-12-15T23:41:18.086Z,-0.35
2022-12-15T23:43:44.836Z,-0.40
2022-12-15T23:46:12.008Z,-0.36
2022-12-15T23:48:40.998Z,-0.34
2022-12-15T23:51:13.734Z,-0.41
2022-12-15T23:53:40.903Z,-0.40
2022-12-15T23:56:13.468Z,-0.33
2022-12-15T23:58:41.446Z,-0.39
